sensor_id;sensor_type;location;lat;lon;timestamp;P1;durP1;ratioP1;P2;durP2;ratioP2
25247;SDS011;13191;47.472;11.214;2024-03-02T00:02:07;8.63;;;3.75;;
25247;SDS011;13191;47.472;11.214;2024-03-02T00:04:33;8.75;;;4.70;;
25247;SDS011;13191;47.472;11.214;2024-03-02T00:06:59;8.10;;;3.22;;
25247;SDS011;13191;47.472;11.214;2024-03-02T00:09:24;11.68;;;3.65;;
25247;SDS011;13191;47.472;11.214;2024-03-02T00:11:50;8.90;;;4.18;;
25247;SDS011;13191;47.472;11.214;2024-03-02T00:14:16;10.55;;;3.67;;
25247;SDS011;13191;47.472;11.214;2024-03-02T00:16:41;8.27;;;3.75;;
25247;SDS011;13191;47.472;11.214;2024-03-02T00:19:07;7.90;;;3.90;;
25247;SDS011;13191;47.472;11.214;2024-03-02T00:21:34;7.60;;;3.33;;
25247;SDS011;13191;47.472;11.214;2024-03-02T00:24:00;7.97;;;3.80;;
25247;SDS011;13191;47.472;11.214;2024-03-02T00:26:31;8.68;;;3.70;;
25247;SDS011;13191;47.472;11.214;2024-03-02T00:28:57;9.57;;;3.90;;
25247;SDS011;13191;47.472;11.214;2024-03-02T00:31:22;9.25;;;4.60;;
25247;SDS011;13191;47.472;11.214;2024-03-02T00:33:48;11.82;;;4.53;;
25247;SDS011;13191;47.472;11.214;2024-03-02T00:36:15;9.05;;;3.20;;
25247;SDS011;13191;47.472;11.214;2024-03-02T00:38:48;9.32;;;4.25;;
25247;SDS011;13191;47.472;11.214;2024-03-02T00:41:21;10.00;;;4.75;;
25247;SDS011;13191;47.472;11.214;2024-03-02T00:44:06;7.65;;;3.85;;
25247;SDS011;13191;47.472;11.214;2024-03-02T00:46:36;9.15;;;3.50;;
25247;SDS011;13191;47.472;11.214;2024-03-02T00:49:10;10.05;;;4.70;;
25247;SDS011;13191;47.472;11.214;2024-03-02T00:51:37;11.10;;;5.22;;
25247;SDS011;13191;47.472;11.214;2024-03-02T00:54:04;7.45;;;3.65;;
25247;SDS011;13191;47.472;11.214;2024-03-02T00:56:31;8.52;;;3.75;;
25247;SDS011;13191;47.472;11.214;2024-03-02T00:58:58;9.35;;;3.72;;
25247;SDS011;13191;47.472;11.214;2024-03-02T01:01:23;9.70;;;4.28;;
25247;SDS011;13191;47.472;11.214;2024-03-02T01:03:49;7.78;;;4.20;;
25247;SDS011;13191;47.472;11.214;2024-03-02T01:06:15;8.80;;;4.18;;
25247;SDS011;13191;47.472;11.214;2024-03-02T01:08:41;10.10;;;5.05;;
25247;SDS011;13191;47.472;11.214;2024-03-02T01:11:07;6.38;;;3.35;;
25247;SDS011;13191;47.472;11.214;2024-03-02T01:13:33;8.82;;;3.63;;
25247;SDS011;13191;47.472;11.214;2024-03-02T01:15:59;8.23;;;3.95;;
25247;SDS011;13191;47.472;11.214;2024-03-02T01:18:26;8.10;;;3.80;;
25247;SDS011;13191;47.472;11.214;2024-03-02T01:20:51;8.07;;;3.22;;
25247;SDS011;13191;47.472;11.214;2024-03-02T01:23:18;10.80;;;4.47;;
25247;SDS011;13191;47.472;11.214;2024-03-02T01:25:44;6.25;;;2.85;;
25247;SDS011;13191;47.472;11.214;2024-03-02T01:28:12;8.13;;;3.88;;
25247;SDS011;13191;47.472;11.214;2024-03-02T01:30:38;6.60;;;3.35;;
25247;SDS011;13191;47.472;11.214;2024-03-02T01:33:03;8.20;;;3.20;;
25247;SDS011;13191;47.472;11.214;2024-03-02T01:35:30;7.03;;;3.78;;
25247;SDS011;13191;47.472;11.214;2024-03-02T01:37:56;12.52;;;3.95;;
25247;SDS011;13191;47.472;11.214;2024-03-02T01:40:22;5.88;;;3.38;;
25247;SDS011;13191;47.472;11.214;2024-03-02T01:42:51;7.78;;;3.90;;
25247;SDS011;13191;47.472;11.214;2024-03-02T01:45:17;11.68;;;4.00;;
25247;SDS011;13191;47.472;11.214;2024-03-02T01:47:43;9.30;;;4.05;;
25247;SDS011;13191;47.472;11.214;2024-03-02T01:50:09;9.25;;;4.25;;
25247;SDS011;13191;47.472;11.214;2024-03-02T01:52:36;9.55;;;3.53;;
25247;SDS011;13191;47.472;11.214;2024-03-02T01:55:02;11.02;;;4.57;;
25247;SDS011;13191;47.472;11.214;2024-03-02T01:57:28;8.95;;;4.20;;
25247;SDS011;13191;47.472;11.214;2024-03-02T01:59:54;6.88;;;3.15;;
25247;SDS011;13191;47.472;11.214;2024-03-02T02:02:20;8.60;;;4.57;;
25247;SDS011;13191;47.472;11.214;2024-03-02T02:04:46;8.40;;;3.55;;
25247;SDS011;13191;47.472;11.214;2024-03-02T02:07:12;8.75;;;3.65;;
25247;SDS011;13191;47.472;11.214;2024-03-02T02:09:39;6.38;;;3.83;;
25247;SDS011;13191;47.472;11.214;2024-03-02T02:12:06;7.22;;;3.42;;
25247;SDS011;13191;47.472;11.214;2024-03-02T02:14:32;9.07;;;3.80;;
25247;SDS011;13191;47.472;11.214;2024-03-02T02:16:58;8.07;;;3.78;;
25247;SDS011;13191;47.472;11.214;2024-03-02T02:19:24;9.85;;;3.22;;
25247;SDS011;13191;47.472;11.214;2024-03-02T02:21:49;7.78;;;3.97;;
25247;SDS011;13191;47.472;11.214;2024-03-02T02:24:15;5.90;;;3.40;;
25247;SDS011;13191;47.472;11.214;2024-03-02T02:26:40;7.10;;;4.30;;
25247;SDS011;13191;47.472;11.214;2024-03-02T02:29:06;8.60;;;4.05;;
25247;SDS011;13191;47.472;11.214;2024-03-02T02:31:40;7.10;;;3.45;;
25247;SDS011;13191;47.472;11.214;2024-03-02T02:34:06;10.75;;;4.10;;
25247;SDS011;13191;47.472;11.214;2024-03-02T02:36:32;7.10;;;3.33;;
25247;SDS011;13191;47.472;11.214;2024-03-02T02:39:00;6.05;;;3.65;;
25247;SDS011;13191;47.472;11.214;2024-03-02T02:41:31;7.63;;;3.80;;
25247;SDS011;13191;47.472;11.214;2024-03-02T02:43:57;6.22;;;3.47;;
25247;SDS011;13191;47.472;11.214;2024-03-02T02:46:23;10.68;;;4.20;;
25247;SDS011;13191;47.472;11.214;2024-03-02T02:48:48;8.95;;;4.18;;
25247;SDS011;13191;47.472;11.214;2024-03-02T02:51:16;11.13;;;4.70;;
25247;SDS011;13191;47.472;11.214;2024-03-02T02:53:42;12.70;;;4.25;;
25247;SDS011;13191;47.472;11.214;2024-03-02T02:56:07;7.82;;;4.07;;
25247;SDS011;13191;47.472;11.214;2024-03-02T02:58:33;9.45;;;3.97;;
25247;SDS011;13191;47.472;11.214;2024-03-02T03:00:58;9.45;;;3.53;;
25247;SDS011;13191;47.472;11.214;2024-03-02T03:03:24;9.40;;;3.70;;
25247;SDS011;13191;47.472;11.214;2024-03-02T03:05:49;10.20;;;3.72;;
25247;SDS011;13191;47.472;11.214;2024-03-02T03:08:15;12.48;;;3.65;;
25247;SDS011;13191;47.472;11.214;2024-03-02T03:10:41;9.05;;;4.55;;
25247;SDS011;13191;47.472;11.214;2024-03-02T03:13:07;9.85;;;4.20;;
25247;SDS011;13191;47.472;11.214;2024-03-02T03:15:36;7.00;;;3.22;;
25247;SDS011;13191;47.472;11.214;2024-03-02T03:18:02;6.38;;;3.00;;
25247;SDS011;13191;47.472;11.214;2024-03-02T03:20:29;7.40;;;3.70;;
25247;SDS011;13191;47.472;11.214;2024-03-02T03:22:55;6.90;;;3.20;;
25247;SDS011;13191;47.472;11.214;2024-03-02T03:25:21;8.68;;;3.75;;
25247;SDS011;13191;47.472;11.214;2024-03-02T03:27:46;6.45;;;3.30;;
25247;SDS011;13191;47.472;11.214;2024-03-02T03:30:12;5.78;;;3.00;;
25247;SDS011;13191;47.472;11.214;2024-03-02T03:32:38;8.35;;;3.33;;
25247;SDS011;13191;47.472;11.214;2024-03-02T03:35:04;7.18;;;3.30;;
25247;SDS011;13191;47.472;11.214;2024-03-02T03:37:30;7.05;;;3.38;;
25247;SDS011;13191;47.472;11.214;2024-03-02T03:39:58;6.57;;;3.45;;
25247;SDS011;13191;47.472;11.214;2024-03-02T03:42:24;8.00;;;3.40;;
25247;SDS011;13191;47.472;11.214;2024-03-02T03:44:49;6.40;;;3.22;;
25247;SDS011;13191;47.472;11.214;2024-03-02T03:47:15;7.25;;;2.88;;
25247;SDS011;13191;47.472;11.214;2024-03-02T03:49:40;7.53;;;3.72;;
25247;SDS011;13191;47.472;11.214;2024-03-02T03:52:06;5.25;;;2.33;;
25247;SDS011;13191;47.472;11.214;2024-03-02T03:54:31;6.60;;;2.88;;
25247;SDS011;13191;47.472;11.214;2024-03-02T03:56:57;9.45;;;2.75;;
25247;SDS011;13191;47.472;11.214;2024-03-02T03:59:23;7.13;;;3.25;;
25247;SDS011;13191;47.472;11.214;2024-03-02T04:01:48;9.65;;;3.17;;
25247;SDS011;13191;47.472;11.214;2024-03-02T04:04:14;7.97;;;4.03;;
25247;SDS011;13191;47.472;11.214;2024-03-02T04:06:40;6.30;;;2.75;;
25247;SDS011;13191;47.472;11.214;2024-03-02T04:09:05;8.60;;;3.45;;
25247;SDS011;13191;47.472;11.214;2024-03-02T04:11:31;7.50;;;3.53;;
25247;SDS011;13191;47.472;11.214;2024-03-02T04:13:56;6.40;;;2.92;;
25247;SDS011;13191;47.472;11.214;2024-03-02T04:16:22;7.25;;;3.08;;
25247;SDS011;13191;47.472;11.214;2024-03-02T04:18:47;5.45;;;2.95;;
25247;SDS011;13191;47.472;11.214;2024-03-02T04:21:13;6.18;;;3.03;;
25247;SDS011;13191;47.472;11.214;2024-03-02T04:23:39;7.25;;;3.10;;
25247;SDS011;13191;47.472;11.214;2024-03-02T04:26:04;7.32;;;3.10;;
25247;SDS011;13191;47.472;11.214;2024-03-02T04:28:30;8.32;;;3.13;;
25247;SDS011;13191;47.472;11.214;2024-03-02T04:30:55;7.50;;;2.88;;
25247;SDS011;13191;47.472;11.214;2024-03-02T04:33:21;5.78;;;2.85;;
25247;SDS011;13191;47.472;11.214;2024-03-02T04:35:46;8.75;;;3.22;;
25247;SDS011;13191;47.472;11.214;2024-03-02T04:38:12;10.07;;;3.63;;
25247;SDS011;13191;47.472;11.214;2024-03-02T04:40:37;4.78;;;2.88;;
25247;SDS011;13191;47.472;11.214;2024-03-02T04:43:03;7.50;;;3.17;;
25247;SDS011;13191;47.472;11.214;2024-03-02T04:45:29;5.65;;;2.53;;
25247;SDS011;13191;47.472;11.214;2024-03-02T04:47:54;5.97;;;2.83;;
25247;SDS011;13191;47.472;11.214;2024-03-02T04:50:20;4.43;;;1.98;;
25247;SDS011;13191;47.472;11.214;2024-03-02T04:52:45;5.80;;;2.88;;
25247;SDS011;13191;47.472;11.214;2024-03-02T04:55:11;9.05;;;3.88;;
25247;SDS011;13191;47.472;11.214;2024-03-02T05:00:08;4.22;;;2.15;;
25247;SDS011;13191;47.472;11.214;2024-03-02T05:02:34;4.60;;;2.65;;
25247;SDS011;13191;47.472;11.214;2024-03-02T05:05:00;7.63;;;2.58;;
25247;SDS011;13191;47.472;11.214;2024-03-02T05:07:26;4.93;;;2.30;;
25247;SDS011;13191;47.472;11.214;2024-03-02T05:09:51;4.25;;;1.98;;
25247;SDS011;13191;47.472;11.214;2024-03-02T05:12:17;3.70;;;1.98;;
25247;SDS011;13191;47.472;11.214;2024-03-02T05:14:48;6.63;;;2.40;;
25247;SDS011;13191;47.472;11.214;2024-03-02T05:17:14;7.70;;;2.38;;
25247;SDS011;13191;47.472;11.214;2024-03-02T05:19:40;6.13;;;2.35;;
25247;SDS011;13191;47.472;11.214;2024-03-02T05:22:05;4.28;;;2.28;;
25247;SDS011;13191;47.472;11.214;2024-03-02T05:24:31;5.13;;;2.47;;
25247;SDS011;13191;47.472;11.214;2024-03-02T05:26:56;4.55;;;2.35;;
25247;SDS011;13191;47.472;11.214;2024-03-02T05:29:22;5.28;;;2.20;;
25247;SDS011;13191;47.472;11.214;2024-03-02T05:31:48;4.18;;;2.22;;
25247;SDS011;13191;47.472;11.214;2024-03-02T05:34:13;3.47;;;1.85;;
25247;SDS011;13191;47.472;11.214;2024-03-02T05:36:39;5.10;;;2.08;;
25247;SDS011;13191;47.472;11.214;2024-03-02T05:39:05;7.35;;;2.22;;
25247;SDS011;13191;47.472;11.214;2024-03-02T05:41:35;5.43;;;2.15;;
25247;SDS011;13191;47.472;11.214;2024-03-02T05:44:00;5.13;;;2.55;;
25247;SDS011;13191;47.472;11.214;2024-03-02T05:46:26;7.07;;;2.15;;
25247;SDS011;13191;47.472;11.214;2024-03-02T05:48:52;4.05;;;2.22;;
25247;SDS011;13191;47.472;11.214;2024-03-02T05:51:17;5.32;;;1.90;;
25247;SDS011;13191;47.472;11.214;2024-03-02T05:53:43;6.03;;;2.15;;
25247;SDS011;13191;47.472;11.214;2024-03-02T05:56:08;7.57;;;2.55;;
25247;SDS011;13191;47.472;11.214;2024-03-02T05:58:34;4.05;;;2.50;;
25247;SDS011;13191;47.472;11.214;2024-03-02T06:01:18;4.28;;;1.98;;
25247;SDS011;13191;47.472;11.214;2024-03-02T06:03:44;4.97;;;2.38;;
25247;SDS011;13191;47.472;11.214;2024-03-02T06:06:10;4.78;;;2.40;;
25247;SDS011;13191;47.472;11.214;2024-03-02T06:08:35;3.40;;;2.15;;
25247;SDS011;13191;47.472;11.214;2024-03-02T06:11:01;8.45;;;2.25;;
25247;SDS011;13191;47.472;11.214;2024-03-02T06:13:26;3.50;;;1.90;;
25247;SDS011;13191;47.472;11.214;2024-03-02T06:15:52;6.78;;;2.80;;
25247;SDS011;13191;47.472;11.214;2024-03-02T06:18:18;5.53;;;2.40;;
25247;SDS011;13191;47.472;11.214;2024-03-02T06:20:43;5.38;;;2.33;;
25247;SDS011;13191;47.472;11.214;2024-03-02T06:23:09;5.03;;;2.28;;
25247;SDS011;13191;47.472;11.214;2024-03-02T06:25:35;5.55;;;2.17;;
25247;SDS011;13191;47.472;11.214;2024-03-02T06:28:00;8.75;;;3.17;;
25247;SDS011;13191;47.472;11.214;2024-03-02T06:30:26;8.55;;;3.40;;
25247;SDS011;13191;47.472;11.214;2024-03-02T06:32:51;6.18;;;2.58;;
25247;SDS011;13191;47.472;11.214;2024-03-02T06:35:17;30.23;;;3.30;;
25247;SDS011;13191;47.472;11.214;2024-03-02T06:37:42;9.93;;;2.60;;
25247;SDS011;13191;47.472;11.214;2024-03-02T06:40:08;10.00;;;3.53;;
25247;SDS011;13191;47.472;11.214;2024-03-02T06:42:34;8.13;;;2.65;;
25247;SDS011;13191;47.472;11.214;2024-03-02T06:45:00;3.95;;;2.33;;
25247;SDS011;13191;47.472;11.214;2024-03-02T06:47:27;6.50;;;2.92;;
25247;SDS011;13191;47.472;11.214;2024-03-02T06:49:52;5.40;;;2.45;;
25247;SDS011;13191;47.472;11.214;2024-03-02T06:52:18;25.73;;;3.40;;
25247;SDS011;13191;47.472;11.214;2024-03-02T06:54:45;6.43;;;3.00;;
25247;SDS011;13191;47.472;11.214;2024-03-02T06:57:11;6.22;;;2.50;;
25247;SDS011;13191;47.472;11.214;2024-03-02T06:59:37;3.63;;;1.63;;
25247;SDS011;13191;47.472;11.214;2024-03-02T07:02:02;6.80;;;2.35;;
25247;SDS011;13191;47.472;11.214;2024-03-02T07:04:28;7.25;;;2.30;;
25247;SDS011;13191;47.472;11.214;2024-03-02T07:06:53;4.10;;;1.67;;
25247;SDS011;13191;47.472;11.214;2024-03-02T07:09:20;3.28;;;2.22;;
25247;SDS011;13191;47.472;11.214;2024-03-02T07:11:47;4.63;;;1.70;;
25247;SDS011;13191;47.472;11.214;2024-03-02T07:14:13;4.90;;;2.15;;
25247;SDS011;13191;47.472;11.214;2024-03-02T07:16:39;3.72;;;1.95;;
25247;SDS011;13191;47.472;11.214;2024-03-02T07:19:05;3.10;;;1.67;;
25247;SDS011;13191;47.472;11.214;2024-03-02T07:21:31;6.47;;;2.28;;
25247;SDS011;13191;47.472;11.214;2024-03-02T07:23:58;3.83;;;2.20;;
25247;SDS011;13191;47.472;11.214;2024-03-02T07:26:24;2.75;;;1.63;;
25247;SDS011;13191;47.472;11.214;2024-03-02T07:28:50;2.92;;;1.50;;
25247;SDS011;13191;47.472;11.214;2024-03-02T07:31:16;3.60;;;1.92;;
25247;SDS011;13191;47.472;11.214;2024-03-02T07:33:43;5.90;;;2.20;;
25247;SDS011;13191;47.472;11.214;2024-03-02T07:36:10;4.78;;;1.73;;
25247;SDS011;13191;47.472;11.214;2024-03-02T07:38:35;7.95;;;2.15;;
25247;SDS011;13191;47.472;11.214;2024-03-02T07:41:01;10.35;;;2.65;;
25247;SDS011;13191;47.472;11.214;2024-03-02T07:43:27;3.72;;;1.95;;
25247;SDS011;13191;47.472;11.214;2024-03-02T07:45:53;3.65;;;1.75;;
25247;SDS011;13191;47.472;11.214;2024-03-02T07:48:19;7.65;;;2.08;;
25247;SDS011;13191;47.472;11.214;2024-03-02T07:50:44;4.25;;;1.77;;
25247;SDS011;13191;47.472;11.214;2024-03-02T07:53:10;4.35;;;1.98;;
25247;SDS011;13191;47.472;11.214;2024-03-02T07:55:35;3.22;;;1.60;;
25247;SDS011;13191;47.472;11.214;2024-03-02T07:58:01;4.75;;;1.80;;
25247;SDS011;13191;47.472;11.214;2024-03-02T08:00:27;6.25;;;1.85;;
25247;SDS011;13191;47.472;11.214;2024-03-02T08:02:53;3.33;;;1.45;;
25247;SDS011;13191;47.472;11.214;2024-03-02T08:05:19;4.15;;;1.70;;
25247;SDS011;13191;47.472;11.214;2024-03-02T08:07:45;3.33;;;1.70;;
25247;SDS011;13191;47.472;11.214;2024-03-02T08:10:11;8.07;;;1.85;;
25247;SDS011;13191;47.472;11.214;2024-03-02T08:12:38;4.80;;;1.52;;
25247;SDS011;13191;47.472;11.214;2024-03-02T08:15:04;3.63;;;1.60;;
25247;SDS011;13191;47.472;11.214;2024-03-02T08:17:30;3.08;;;1.83;;
25247;SDS011;13191;47.472;11.214;2024-03-02T08:19:55;3.42;;;1.90;;
25247;SDS011;13191;47.472;11.214;2024-03-02T08:22:22;3.92;;;1.58;;
25247;SDS011;13191;47.472;11.214;2024-03-02T08:24:50;3.20;;;1.77;;
25247;SDS011;13191;47.472;11.214;2024-03-02T08:27:16;4.97;;;2.00;;
25247;SDS011;13191;47.472;11.214;2024-03-02T08:29:41;4.20;;;1.85;;
25247;SDS011;13191;47.472;11.214;2024-03-02T08:32:07;2.90;;;1.48;;
25247;SDS011;13191;47.472;11.214;2024-03-02T08:34:32;18.00;;;1.98;;
25247;SDS011;13191;47.472;11.214;2024-03-02T08:37:00;3.40;;;1.40;;
25247;SDS011;13191;47.472;11.214;2024-03-02T08:39:26;2.00;;;1.13;;
25247;SDS011;13191;47.472;11.214;2024-03-02T08:41:52;10.48;;;1.90;;
25247;SDS011;13191;47.472;11.214;2024-03-02T08:44:18;3.85;;;1.42;;
25247;SDS011;13191;47.472;11.214;2024-03-02T08:46:44;2.72;;;1.33;;
25247;SDS011;13191;47.472;11.214;2024-03-02T08:49:09;2.25;;;1.33;;
25247;SDS011;13191;47.472;11.214;2024-03-02T08:51:35;2.67;;;1.58;;
25247;SDS011;13191;47.472;11.214;2024-03-02T08:54:01;3.70;;;1.60;;
25247;SDS011;13191;47.472;11.214;2024-03-02T08:56:26;3.03;;;1.35;;
25247;SDS011;13191;47.472;11.214;2024-03-02T08:58:52;2.42;;;1.27;;
25247;SDS011;13191;47.472;11.214;2024-03-02T09:01:18;3.28;;;1.38;;
25247;SDS011;13191;47.472;11.214;2024-03-02T09:03:46;1.95;;;1.20;;
25247;SDS011;13191;47.472;11.214;2024-03-02T09:06:14;2.13;;;1.30;;
25247;SDS011;13191;47.472;11.214;2024-03-02T09:08:41;4.07;;;1.50;;
25247;SDS011;13191;47.472;11.214;2024-03-02T09:11:08;2.17;;;1.10;;
25247;SDS011;13191;47.472;11.214;2024-03-02T09:13:34;2.45;;;1.17;;
25247;SDS011;13191;47.472;11.214;2024-03-02T09:16:00;1.88;;;0.90;;
25247;SDS011;13191;47.472;11.214;2024-03-02T09:18:26;1.88;;;0.93;;
25247;SDS011;13191;47.472;11.214;2024-03-02T09:20:51;2.00;;;1.23;;
25247;SDS011;13191;47.472;11.214;2024-03-02T09:23:17;3.15;;;1.27;;
25247;SDS011;13191;47.472;11.214;2024-03-02T09:25:43;1.90;;;0.90;;
25247;SDS011;13191;47.472;11.214;2024-03-02T09:28:08;1.48;;;0.95;;
25247;SDS011;13191;47.472;11.214;2024-03-02T09:30:36;3.67;;;1.17;;
25247;SDS011;13191;47.472;11.214;2024-03-02T09:33:02;2.78;;;0.98;;
25247;SDS011;13191;47.472;11.214;2024-03-02T09:35:28;2.95;;;0.98;;
25247;SDS011;13191;47.472;11.214;2024-03-02T09:37:54;1.67;;;0.88;;
25247;SDS011;13191;47.472;11.214;2024-03-02T09:40:21;2.28;;;1.05;;
25247;SDS011;13191;47.472;11.214;2024-03-02T09:42:47;7.03;;;1.73;;
25247;SDS011;13191;47.472;11.214;2024-03-02T09:45:18;1.90;;;0.90;;
25247;SDS011;13191;47.472;11.214;2024-03-02T09:47:49;2.28;;;0.93;;
25247;SDS011;13191;47.472;11.214;2024-03-02T09:50:15;1.77;;;0.55;;
25247;SDS011;13191;47.472;11.214;2024-03-02T09:52:42;1.25;;;0.68;;
25247;SDS011;13191;47.472;11.214;2024-03-02T09:55:08;1.92;;;1.02;;
25247;SDS011;13191;47.472;11.214;2024-03-02T09:57:34;1.30;;;0.65;;
25247;SDS011;13191;47.472;11.214;2024-03-02T10:00:00;1.55;;;0.82;;
25247;SDS011;13191;47.472;11.214;2024-03-02T10:02:26;2.08;;;0.73;;
25247;SDS011;13191;47.472;11.214;2024-03-02T10:04:51;1.95;;;0.77;;
25247;SDS011;13191;47.472;11.214;2024-03-02T10:07:18;2.60;;;0.80;;
25247;SDS011;13191;47.472;11.214;2024-03-02T10:09:47;0.85;;;0.50;;
25247;SDS011;13191;47.472;11.214;2024-03-02T10:12:14;3.80;;;0.70;;
25247;SDS011;13191;47.472;11.214;2024-03-02T10:14:41;1.00;;;0.50;;
25247;SDS011;13191;47.472;11.214;2024-03-02T10:17:08;0.70;;;0.45;;
25247;SDS011;13191;47.472;11.214;2024-03-02T10:19:35;0.77;;;0.45;;
25247;SDS011;13191;47.472;11.214;2024-03-02T10:22:02;3.35;;;0.50;;
25247;SDS011;13191;47.472;11.214;2024-03-02T10:24:41;0.85;;;0.50;;
25247;SDS011;13191;47.472;11.214;2024-03-02T10:27:09;0.73;;;0.40;;
25247;SDS011;13191;47.472;11.214;2024-03-02T10:29:40;0.70;;;0.50;;
25247;SDS011;13191;47.472;11.214;2024-03-02T10:32:09;1.80;;;0.50;;
25247;SDS011;13191;47.472;11.214;2024-03-02T10:34:36;1.35;;;0.57;;
25247;SDS011;13191;47.472;11.214;2024-03-02T10:37:05;0.90;;;0.50;;
25247;SDS011;13191;47.472;11.214;2024-03-02T10:39:32;0.40;;;0.30;;
25247;SDS011;13191;47.472;11.214;2024-03-02T10:42:00;0.55;;;0.40;;
25247;SDS011;13191;47.472;11.214;2024-03-02T10:44:28;0.60;;;0.40;;
25247;SDS011;13191;47.472;11.214;2024-03-02T10:46:55;0.90;;;0.40;;
25247;SDS011;13191;47.472;11.214;2024-03-02T10:49:22;1.08;;;0.50;;
25247;SDS011;13191;47.472;11.214;2024-03-02T10:51:49;1.65;;;0.80;;
25247;SDS011;13191;47.472;11.214;2024-03-02T10:54:14;1.15;;;0.57;;
25247;SDS011;13191;47.472;11.214;2024-03-02T10:56:41;0.73;;;0.30;;
25247;SDS011;13191;47.472;11.214;2024-03-02T11:01:57;3.47;;;0.68;;
25247;SDS011;13191;47.472;11.214;2024-03-02T11:04:24;1.63;;;0.47;;
25247;SDS011;13191;47.472;11.214;2024-03-02T11:06:51;0.52;;;0.40;;
25247;SDS011;13191;47.472;11.214;2024-03-02T11:09:19;0.40;;;0.30;;
25247;SDS011;13191;47.472;11.214;2024-03-02T11:11:51;0.55;;;0.30;;
25247;SDS011;13191;47.472;11.214;2024-03-02T11:14:26;0.55;;;0.30;;
25247;SDS011;13191;47.472;11.214;2024-03-02T11:16:54;0.80;;;0.28;;
25247;SDS011;13191;47.472;11.214;2024-03-02T11:19:20;0.90;;;0.30;;
25247;SDS011;13191;47.472;11.214;2024-03-02T11:21:46;1.90;;;0.50;;
25247;SDS011;13191;47.472;11.214;2024-03-02T11:26:52;1.70;;;0.30;;
25247;SDS011;13191;47.472;11.214;2024-03-02T11:32:22;4.25;;;0.88;;
25247;SDS011;13191;47.472;11.214;2024-03-02T11:34:51;0.52;;;0.50;;
25247;SDS011;13191;47.472;11.214;2024-03-02T11:37:19;2.53;;;0.52;;
25247;SDS011;13191;47.472;11.214;2024-03-02T11:39:46;0.82;;;0.40;;
25247;SDS011;13191;47.472;11.214;2024-03-02T11:42:13;0.75;;;0.40;;
25247;SDS011;13191;47.472;11.214;2024-03-02T11:44:43;0.98;;;0.43;;
25247;SDS011;13191;47.472;11.214;2024-03-02T11:47:11;4.65;;;0.50;;
25247;SDS011;13191;47.472;11.214;2024-03-02T11:49:45;0.20;;;0.20;;
25247;SDS011;13191;47.472;11.214;2024-03-02T11:52:13;1.25;;;0.40;;
25247;SDS011;13191;47.472;11.214;2024-03-02T11:54:41;0.30;;;0.20;;
25247;SDS011;13191;47.472;11.214;2024-03-02T11:57:17;0.85;;;0.40;;
25247;SDS011;13191;47.472;11.214;2024-03-02T11:59:44;1.13;;;0.25;;
25247;SDS011;13191;47.472;11.214;2024-03-02T12:02:17;0.32;;;0.28;;
25247;SDS011;13191;47.472;11.214;2024-03-02T12:04:44;0.65;;;0.40;;
25247;SDS011;13191;47.472;11.214;2024-03-02T12:07:10;3.03;;;0.60;;
25247;SDS011;13191;47.472;11.214;2024-03-02T12:09:37;2.92;;;0.50;;
25247;SDS011;13191;47.472;11.214;2024-03-02T12:12:04;0.35;;;0.25;;
25247;SDS011;13191;47.472;11.214;2024-03-02T12:14:35;0.80;;;0.40;;
25247;SDS011;13191;47.472;11.214;2024-03-02T12:17:02;1.40;;;0.38;;
25247;SDS011;13191;47.472;11.214;2024-03-02T12:19:29;1.15;;;0.50;;
25247;SDS011;13191;47.472;11.214;2024-03-02T12:21:58;0.52;;;0.20;;
25247;SDS011;13191;47.472;11.214;2024-03-02T12:24:26;1.08;;;0.68;;
25247;SDS011;13191;47.472;11.214;2024-03-02T12:26:53;1.70;;;0.60;;
25247;SDS011;13191;47.472;11.214;2024-03-02T12:29:20;3.30;;;0.75;;
25247;SDS011;13191;47.472;11.214;2024-03-02T12:31:49;4.15;;;0.55;;
25247;SDS011;13191;47.472;11.214;2024-03-02T12:34:18;0.75;;;0.40;;
25247;SDS011;13191;47.472;11.214;2024-03-02T12:36:45;1.80;;;0.40;;
25247;SDS011;13191;47.472;11.214;2024-03-02T12:39:14;1.55;;;0.63;;
25247;SDS011;13191;47.472;11.214;2024-03-02T12:41:43;1.45;;;0.73;;
25247;SDS011;13191;47.472;11.214;2024-03-02T12:44:09;1.23;;;0.60;;
25247;SDS011;13191;47.472;11.214;2024-03-02T12:46:35;0.77;;;0.40;;
25247;SDS011;13191;47.472;11.214;2024-03-02T12:49:08;0.28;;;0.28;;
25247;SDS011;13191;47.472;11.214;2024-03-02T12:51:39;1.40;;;0.60;;
25247;SDS011;13191;47.472;11.214;2024-03-02T12:54:06;0.65;;;0.50;;
25247;SDS011;13191;47.472;11.214;2024-03-02T12:56:32;0.82;;;0.30;;
25247;SDS011;13191;47.472;11.214;2024-03-02T12:58:58;1.02;;;0.43;;
25247;SDS011;13191;47.472;11.214;2024-03-02T13:01:24;1.00;;;0.40;;
25247;SDS011;13191;47.472;11.214;2024-03-02T13:03:54;1.48;;;0.50;;
25247;SDS011;13191;47.472;11.214;2024-03-02T13:06:24;0.82;;;0.38;;
25247;SDS011;13191;47.472;11.214;2024-03-02T13:08:53;0.60;;;0.50;;
25247;SDS011;13191;47.472;11.214;2024-03-02T13:11:20;0.22;;;0.22;;
25247;SDS011;13191;47.472;11.214;2024-03-02T13:13:48;1.50;;;0.60;;
25247;SDS011;13191;47.472;11.214;2024-03-02T13:16:14;0.38;;;0.30;;
25247;SDS011;13191;47.472;11.214;2024-03-02T13:18:41;0.50;;;0.30;;
25247;SDS011;13191;47.472;11.214;2024-03-02T13:21:07;0.68;;;0.30;;
25247;SDS011;13191;47.472;11.214;2024-03-02T13:23:33;0.50;;;0.30;;
25247;SDS011;13191;47.472;11.214;2024-03-02T13:25:59;0.65;;;0.30;;
25247;SDS011;13191;47.472;11.214;2024-03-02T13:28:25;0.70;;;0.40;;
25247;SDS011;13191;47.472;11.214;2024-03-02T13:30:51;1.52;;;0.70;;
25247;SDS011;13191;47.472;11.214;2024-03-02T13:33:16;0.20;;;0.20;;
25247;SDS011;13191;47.472;11.214;2024-03-02T13:35:50;0.70;;;0.40;;
25247;SDS011;13191;47.472;11.214;2024-03-02T13:38:17;0.93;;;0.40;;
25247;SDS011;13191;47.472;11.214;2024-03-02T13:40:43;5.35;;;0.63;;
25247;SDS011;13191;47.472;11.214;2024-03-02T13:43:09;1.75;;;0.55;;
25247;SDS011;13191;47.472;11.214;2024-03-02T13:45:35;0.63;;;0.30;;
25247;SDS011;13191;47.472;11.214;2024-03-02T13:48:01;2.08;;;0.40;;
25247;SDS011;13191;47.472;11.214;2024-03-02T13:50:28;4.03;;;0.30;;
25247;SDS011;13191;47.472;11.214;2024-03-02T13:52:55;1.38;;;0.85;;
25247;SDS011;13191;47.472;11.214;2024-03-02T13:55:21;2.08;;;0.30;;
25247;SDS011;13191;47.472;11.214;2024-03-02T13:57:46;0.60;;;0.40;;
25247;SDS011;13191;47.472;11.214;2024-03-02T14:00:13;1.02;;;0.20;;
25247;SDS011;13191;47.472;11.214;2024-03-02T14:02:40;1.95;;;0.68;;
25247;SDS011;13191;47.472;11.214;2024-03-02T14:05:06;0.50;;;0.30;;
25247;SDS011;13191;47.472;11.214;2024-03-02T14:07:36;1.23;;;0.55;;
25247;SDS011;13191;47.472;11.214;2024-03-02T14:10:02;0.38;;;0.30;;
25247;SDS011;13191;47.472;11.214;2024-03-02T14:12:28;0.35;;;0.30;;
25247;SDS011;13191;47.472;11.214;2024-03-02T14:14:54;2.05;;;0.50;;
25247;SDS011;13191;47.472;11.214;2024-03-02T14:17:23;0.73;;;0.30;;
25247;SDS011;13191;47.472;11.214;2024-03-02T14:19:51;0.40;;;0.28;;
25247;SDS011;13191;47.472;11.214;2024-03-02T14:22:18;2.92;;;0.30;;
25247;SDS011;13191;47.472;11.214;2024-03-02T14:24:44;0.38;;;0.20;;
25247;SDS011;13191;47.472;11.214;2024-03-02T14:27:11;0.10;;;0.10;;
25247;SDS011;13191;47.472;11.214;2024-03-02T14:29:36;0.75;;;0.32;;
25247;SDS011;13191;47.472;11.214;2024-03-02T14:32:04;0.40;;;0.22;;
25247;SDS011;13191;47.472;11.214;2024-03-02T14:34:30;0.10;;;0.10;;
25247;SDS011;13191;47.472;11.214;2024-03-02T14:36:56;0.38;;;0.20;;
25247;SDS011;13191;47.472;11.214;2024-03-02T14:39:21;0.10;;;0.10;;
25247;SDS011;13191;47.472;11.214;2024-03-02T14:41:47;2.03;;;0.20;;